createdAt,value
2018-09-28T00:00:39.646Z,48.65
2018-09-28T00:01:39.636Z,48.45
2018-09-28T00:02:39.648Z,48.45
2018-09-28T00:03:39.614Z,48.55
2018-09-28T00:04:39.603Z,48.55
2018-09-28T00:05:39.593Z,48.45
2018-09-28T00:06:39.582Z,48.25
2018-09-28T00:07:39.570Z,48.14
2018-09-28T00:08:39.577Z,48.14
2018-09-28T00:09:39.548Z,48.14
2018-09-28T00:10:39.540Z,48.14
2018-09-28T00:11:40.397Z,48.55
2018-09-28T00:12:39.514Z,48.55
2018-09-28T00:13:39.516Z,48.14
2018-09-28T00:14:39.496Z,48.05
2018-09-28T00:15:39.483Z,47.85
2018-09-28T00:16:39.471Z,48.35
2018-09-28T00:17:39.461Z,47.65
2018-09-28T00:18:39.463Z,48.05
2018-09-28T00:19:39.437Z,47.95
2018-09-28T00:20:39.426Z,47.65
2018-09-28T00:21:39.416Z,47.55
2018-09-28T00:22:39.413Z,47.45
2018-09-28T00:23:39.417Z,47.55
2018-09-28T00:24:39.382Z,47.65
2018-09-28T00:25:39.373Z,47.45
2018-09-28T00:26:39.360Z,47.65
2018-09-28T00:27:39.352Z,47.55
2018-09-28T00:28:39.352Z,47.65
2018-09-28T00:29:39.339Z,47.85
2018-09-28T00:30:39.316Z,47.85
2018-09-28T00:31:39.304Z,47.85
2018-09-28T00:32:39.294Z,47.85
2018-09-28T00:33:39.282Z,47.85
2018-09-28T00:34:39.289Z,47.85
2018-09-28T00:35:39.260Z,48.05
2018-09-28T00:36:39.257Z,47.75
2018-09-28T00:37:39.238Z,47.85
2018-09-28T00:38:39.227Z,47.75
2018-09-28T00:39:39.230Z,47.85
2018-09-28T00:40:39.206Z,47.95
2018-09-28T00:41:39.198Z,47.85
2018-09-28T00:42:39.184Z,47.85
2018-09-28T00:43:39.177Z,48.05
2018-09-28T00:44:39.183Z,48.25
2018-09-28T00:45:39.150Z,47.35
2018-09-28T00:46:39.141Z,47.35
2018-09-28T00:47:39.131Z,47.45
2018-09-28T00:48:39.123Z,47.45
2018-09-28T00:49:39.138Z,47.45
2018-09-28T00:50:39.096Z,47.45
2018-09-28T00:51:39.088Z,47.45
2018-09-28T00:52:39.072Z,47.55
2018-09-28T00:53:39.063Z,47.45
2018-09-28T00:54:39.051Z,47.57
2018-09-28T00:55:39.076Z,47.45
2018-09-28T00:56:39.028Z,47.57
2018-09-28T00:57:39.023Z,47.55
2018-09-28T00:58:39.009Z,47.77
2018-09-28T00:59:38.996Z,47.65
2018-09-28T01:00:39.003Z,47.15
2018-09-28T01:01:38.974Z,47.25
2018-09-28T01:02:38.965Z,47.15
2018-09-28T01:03:38.952Z,47.35
2018-09-28T01:04:38.941Z,47.27
2018-09-28T01:05:38.955Z,47.35
2018-09-28T01:06:38.921Z,47.35
2018-09-28T01:07:38.908Z,47.35
2018-09-28T01:08:38.897Z,47.45
2018-09-28T01:09:38.886Z,47.25
2018-09-28T01:10:38.877Z,47.45
2018-09-28T01:11:38.878Z,47.07
2018-09-28T01:12:38.853Z,47.05
2018-09-28T01:13:38.845Z,47.15
2018-09-28T01:14:38.836Z,46.97
2018-09-28T01:15:38.819Z,47.15
2018-09-28T01:16:38.822Z,47.17
2018-09-28T01:17:38.798Z,47.17
2018-09-28T01:18:38.788Z,46.95
2018-09-28T01:19:38.775Z,47.27
2018-09-28T01:20:38.764Z,47.07
2018-09-28T01:21:38.770Z,47.15
2018-09-28T01:22:38.741Z,47.17
2018-09-28T01:23:38.733Z,46.67
2018-09-28T01:24:38.720Z,46.97
2018-09-28T01:25:38.708Z,46.87
2018-09-28T01:26:38.720Z,46.87
2018-09-28T01:27:38.686Z,46.75
2018-09-28T01:28:38.677Z,46.95
2018-09-28T01:29:38.665Z,46.67
2018-09-28T01:30:38.653Z,46.65
2018-09-28T01:31:38.644Z,46.87
2018-09-28T01:32:38.644Z,46.77
2018-09-28T01:33:38.626Z,46.97
2018-09-28T01:34:38.613Z,46.87
2018-09-28T01:35:38.597Z,47.07
2018-09-28T01:36:38.588Z,46.95
2018-09-28T01:37:38.595Z,46.25
2018-09-28T01:38:38.567Z,46.25
2018-09-28T01:39:38.554Z,46.57
2018-09-28T01:40:38.627Z,46.47
2018-09-28T01:41:38.532Z,46.75
2018-09-28T01:42:38.545Z,46.67
2018-09-28T01:43:38.509Z,46.47
2018-09-28T01:44:38.500Z,46.77
2018-09-28T01:45:38.486Z,46.67
2018-09-28T01:46:38.478Z,46.37
2018-09-28T01:47:38.467Z,46.55
2018-09-28T01:48:38.466Z,46.07
2018-09-28T01:49:38.445Z,46.47
2018-09-28T01:50:38.433Z,46.17
2018-09-28T01:51:38.421Z,46.27
2018-09-28T01:52:38.410Z,46.27
2018-09-28T01:53:38.411Z,46.27
2018-09-28T01:54:38.390Z,46.27
2018-09-28T01:55:38.378Z,46.27
2018-09-28T01:56:38.365Z,45.97
2018-09-28T01:57:38.356Z,45.77
2018-09-28T01:58:38.364Z,45.97
2018-09-28T01:59:38.331Z,46.07
2018-09-28T02:00:38.321Z,45.67
2018-09-28T02:01:38.309Z,45.87
2018-09-28T02:02:38.298Z,45.77
2018-09-28T02:03:38.298Z,45.67
2018-09-28T02:04:38.288Z,45.97
2018-09-28T02:05:38.266Z,46.07
2018-09-28T02:06:38.254Z,45.67
2018-09-28T02:07:38.255Z,45.67
2018-09-28T02:08:38.229Z,45.57
2018-09-28T02:09:38.237Z,45.67
2018-09-28T02:10:38.211Z,45.87
2018-09-28T02:11:38.197Z,45.57
2018-09-28T02:12:38.227Z,45.07
2018-09-28T02:13:38.178Z,45.47
2018-09-28T02:14:38.192Z,45.37
2018-09-28T02:15:38.155Z,44.97
2018-09-28T02:16:38.145Z,44.97
2018-09-28T02:17:38.131Z,45.27
2018-09-28T02:18:38.121Z,44.87
2018-09-28T02:19:38.124Z,44.97
2018-09-28T02:20:38.109Z,45.17
2018-09-28T02:21:38.089Z,45.27
2018-09-28T02:22:38.079Z,45.47
2018-09-28T02:23:38.067Z,45.37
2018-09-28T02:24:38.058Z,45.17
2018-09-28T02:25:38.055Z,45.57
2018-09-28T02:26:38.035Z,45.17
2018-09-28T02:27:38.019Z,45.07
2018-09-28T02:28:38.011Z,44.87
2018-09-28T02:29:37.999Z,44.67
2018-09-28T02:30:38.010Z,45.07
2018-09-28T02:31:37.976Z,45.20
2018-09-28T02:32:37.966Z,45.47
2018-09-28T02:33:37.951Z,45.07
2018-09-28T02:34:37.943Z,45.09
2018-09-28T02:35:37.938Z,44.87
2018-09-28T02:36:37.937Z,44.97
2018-09-28T02:37:37.909Z,45.17
2018-09-28T02:38:37.898Z,44.97
2018-09-28T02:39:37.890Z,44.57
2018-09-28T02:40:37.874Z,44.47
2018-09-28T02:41:37.878Z,44.67
2018-09-28T02:42:37.855Z,44.87
2018-09-28T02:43:37.840Z,44.89
2018-09-28T02:44:37.830Z,44.67
2018-09-28T02:45:37.820Z,44.89
2018-09-28T02:46:37.819Z,44.87
2018-09-28T02:47:37.796Z,44.89
2018-09-28T02:48:37.786Z,44.67
2018-09-28T02:49:37.773Z,44.57
2018-09-28T02:50:37.764Z,44.49
2018-09-28T02:51:37.776Z,44.67
2018-09-28T02:52:37.741Z,44.97
2018-09-28T02:53:37.731Z,45.09
2018-09-28T02:54:37.718Z,44.57
2018-09-28T02:55:37.707Z,44.59
2018-09-28T02:56:37.731Z,44.67
2018-09-28T02:57:37.689Z,44.57
2018-09-28T02:58:37.676Z,44.47
2018-09-28T02:59:37.663Z,44.29
2018-09-28T03:00:37.656Z,44.20
2018-09-28T03:01:37.643Z,43.90
2018-09-28T03:02:37.641Z,44.20
2018-09-28T03:03:37.619Z,44.20
2018-09-28T03:04:37.609Z,44.27
2018-09-28T03:05:37.596Z,44.37
2018-09-28T03:06:37.586Z,44.20
2018-09-28T03:07:37.587Z,44.29
2018-09-28T03:08:37.565Z,43.98
2018-09-28T03:09:37.552Z,43.40
2018-09-28T03:10:37.540Z,43.59
2018-09-28T03:11:37.531Z,43.49
2018-09-28T03:12:37.545Z,43.90
2018-09-28T03:13:37.512Z,43.59
2018-09-28T03:14:37.498Z,43.40
2018-09-28T03:15:37.485Z,43.40
2018-09-28T03:16:37.473Z,43.49
2018-09-28T03:17:37.463Z,43.67
2018-09-28T03:18:37.463Z,43.57
2018-09-28T03:19:37.438Z,43.70
2018-09-28T03:20:37.428Z,44.20
2018-09-28T03:21:37.422Z,44.09
2018-09-28T03:22:37.404Z,44.07
2018-09-28T03:23:37.406Z,44.09
2018-09-28T03:24:37.385Z,44.09
2018-09-28T03:25:37.371Z,43.90
2018-09-28T03:26:37.361Z,44.20
2018-09-28T03:27:37.351Z,43.49
2018-09-28T03:28:37.360Z,43.29
2018-09-28T03:29:37.327Z,43.19
2018-09-28T03:30:37.317Z,43.09
2018-09-28T03:31:37.307Z,43.09
2018-09-28T03:32:37.293Z,42.99
2018-09-28T03:33:37.306Z,43.19
2018-09-28T03:34:37.275Z,43.19
2018-09-28T03:35:37.259Z,43.09
2018-09-28T03:36:37.249Z,43.09
2018-09-28T03:37:37.239Z,43.40
2018-09-28T03:38:37.226Z,43.40
2018-09-28T03:39:37.232Z,43.19
2018-09-28T03:40:37.281Z,43.19
2018-09-28T03:41:37.192Z,43.49
2018-09-28T03:42:37.181Z,43.49
2018-09-28T03:43:37.170Z,43.40
2018-09-28T03:44:37.174Z,43.59
2018-09-28T03:45:37.149Z,43.90
2018-09-28T03:46:37.139Z,43.99
2018-09-28T03:47:37.127Z,43.40
2018-09-28T03:48:37.113Z,43.40
2018-09-28T03:49:37.128Z,43.40
2018-09-28T03:50:37.093Z,44.09
2018-09-28T03:51:37.080Z,43.70
2018-09-28T03:52:37.069Z,43.99
2018-09-28T03:53:37.060Z,43.49
2018-09-28T03:54:37.046Z,43.90
2018-09-28T03:55:37.047Z,43.79
2018-09-28T03:56:37.025Z,43.49
2018-09-28T03:57:37.012Z,43.79
2018-09-28T03:58:37.000Z,43.09
2018-09-28T03:59:36.991Z,44.09
2018-09-28T04:00:36.991Z,43.09
2018-09-28T04:01:36.969Z,43.19
2018-09-28T04:02:36.959Z,43.19
2018-09-28T04:03:36.947Z,43.19
2018-09-28T04:04:36.936Z,43.19
2018-09-28T04:05:36.948Z,43.19
2018-09-28T04:06:36.911Z,43.09
2018-09-28T04:07:36.900Z,43.09
2018-09-28T04:08:36.891Z,43.19
2018-09-28T04:09:36.879Z,43.49
2018-09-28T04:10:36.882Z,43.70
2018-09-28T04:11:36.872Z,43.40
2018-09-28T04:12:36.846Z,42.99
2018-09-28T04:13:36.833Z,43.40
2018-09-28T04:14:36.825Z,43.19
2018-09-28T04:15:36.811Z,43.29
2018-09-28T04:16:36.813Z,43.70
2018-09-28T04:17:36.796Z,43.40
2018-09-28T04:18:36.782Z,42.99
2018-09-28T04:19:36.766Z,43.40
2018-09-28T04:20:36.756Z,43.70
2018-09-28T04:21:36.756Z,43.49
2018-09-28T04:22:36.733Z,43.59
2018-09-28T04:23:36.722Z,43.19
2018-09-28T04:24:36.710Z,42.79
2018-09-28T04:25:36.698Z,43.70
2018-09-28T04:26:36.704Z,42.90
2018-09-28T04:27:36.675Z,43.19
2018-09-28T04:28:36.665Z,43.19
2018-09-28T04:29:36.655Z,43.40
2018-09-28T04:30:36.645Z,43.19
2018-09-28T04:31:36.658Z,42.99
2018-09-28T04:32:36.621Z,43.19
2018-09-28T04:33:36.609Z,43.29
2018-09-28T04:34:36.603Z,43.29
2018-09-28T04:35:36.588Z,43.19
2018-09-28T04:36:36.575Z,43.09
2018-09-28T04:37:36.577Z,42.90
2018-09-28T04:38:36.553Z,42.60
2018-09-28T04:39:36.541Z,43.09
2018-09-28T04:40:36.530Z,43.09
2018-09-28T04:41:36.523Z,43.09
2018-09-28T04:42:36.526Z,43.29
2018-09-28T04:43:36.495Z,42.99
2018-09-28T04:44:36.500Z,43.70
2018-09-28T04:45:36.531Z,43.09
2018-09-28T04:46:36.464Z,43.09
2018-09-28T04:47:36.466Z,43.29
2018-09-28T04:48:36.438Z,43.29
2018-09-28T04:49:36.427Z,43.19
2018-09-28T04:50:36.419Z,43.09
2018-09-28T04:51:36.409Z,43.19
2018-09-28T04:52:36.418Z,43.29
2018-09-28T04:53:36.384Z,43.09
2018-09-28T04:54:36.373Z,42.79
2018-09-28T04:55:36.359Z,43.19
2018-09-28T04:56:36.350Z,42.79
2018-09-28T04:57:36.357Z,43.09
2018-09-28T04:58:36.364Z,43.19
2018-09-28T04:59:36.315Z,43.19
2018-09-28T05:00:36.304Z,42.90
2018-09-28T05:01:36.291Z,43.19
2018-09-28T05:02:36.282Z,43.19
2018-09-28T05:03:36.282Z,43.09
2018-09-28T05:04:36.257Z,43.19
2018-09-28T05:05:36.252Z,43.29
2018-09-28T05:06:36.238Z,43.40
2018-09-28T05:07:36.233Z,42.99
2018-09-28T05:08:36.227Z,43.59
2018-09-28T05:09:36.558Z,46.41
2018-09-28T05:10:36.285Z,51.13
2018-09-28T05:11:36.248Z,53.85
2018-09-28T05:12:36.221Z,55.52
2018-09-28T05:13:36.221Z,56.28
2018-09-28T05:14:36.170Z,57.62
2018-09-28T05:19:09.970Z,60.21
2018-09-28T05:34:37.585Z,63.14
2018-09-28T05:35:37.582Z,63.04
2018-09-28T05:36:37.565Z,64.15
2018-09-28T05:37:37.547Z,64.26
2018-09-28T05:38:37.557Z,64.06
2018-09-28T05:39:37.517Z,64.36
2018-09-28T05:40:37.536Z,64.36
2018-09-28T05:41:37.507Z,64.26
2018-09-28T05:42:37.488Z,64.29
2018-09-28T05:43:37.535Z,64.59
2018-09-28T05:44:37.469Z,64.70
2018-09-28T05:45:37.455Z,64.90
2018-09-28T05:46:37.460Z,65.20
2018-09-28T05:47:37.451Z,65.00
2018-09-28T05:48:37.422Z,65.41
2018-09-28T05:49:37.408Z,65.00
2018-09-28T05:50:37.402Z,65.51
2018-09-28T05:51:37.407Z,65.81
2018-09-28T05:52:37.375Z,65.81
2018-09-28T05:53:37.381Z,65.94
2018-09-28T05:54:37.351Z,66.25
2018-09-28T05:55:37.471Z,66.02
2018-09-28T07:18:35.691Z,43.24
2018-09-28T07:19:35.661Z,43.21
2018-09-28T07:20:35.652Z,44.06
2018-09-28T07:21:35.651Z,43.27
2018-09-28T07:22:35.646Z,42.99
2018-09-28T07:23:35.617Z,41.11
2018-09-28T07:24:35.609Z,41.16
2018-09-28T07:25:35.634Z,41.99
2018-09-28T07:26:35.598Z,42.69
2018-09-28T07:27:35.578Z,42.71
2018-09-28T07:28:35.563Z,41.89
2018-09-28T07:29:35.550Z,41.24
2018-09-28T07:30:35.546Z,39.70
2018-09-28T07:31:35.557Z,39.22
2018-09-28T07:32:35.519Z,38.60
2018-09-28T07:33:35.534Z,38.17
2018-09-28T07:34:35.494Z,36.85
2018-09-28T07:35:35.498Z,36.52
2018-09-28T07:36:35.706Z,36.22
2018-09-28T07:37:35.473Z,35.72
2018-09-28T07:38:35.451Z,36.10
2018-09-28T07:39:35.443Z,34.80
2018-09-28T07:40:35.433Z,35.19
2018-09-28T07:41:35.421Z,34.58
2018-09-28T07:42:35.430Z,33.15
2018-09-28T07:43:35.396Z,32.84
2018-09-28T07:44:35.387Z,32.33
2018-09-28T07:45:35.375Z,31.92
2018-09-28T07:46:35.365Z,32.12
2018-09-28T07:47:35.367Z,32.14
2018-09-28T07:48:35.362Z,31.82
2018-09-28T07:49:35.329Z,32.05
2018-09-28T07:50:35.324Z,32.14
2018-09-28T07:51:35.304Z,32.17
2018-09-28T07:52:35.320Z,32.99
2018-09-28T07:53:35.285Z,33.69
2018-09-28T07:54:35.276Z,32.06
2018-09-28T07:55:35.260Z,32.96
2018-09-28T07:56:35.252Z,32.53
2018-09-28T07:57:35.267Z,31.11
2018-09-28T07:58:35.252Z,30.70
2018-09-28T07:59:35.217Z,31.82
2018-09-28T08:00:35.219Z,33.47
2018-09-28T08:01:35.205Z,32.89
2018-09-28T08:02:35.183Z,32.05
2018-09-28T08:03:35.188Z,32.79
2018-09-28T08:04:35.164Z,33.48
2018-09-28T08:05:35.150Z,32.87
2018-09-28T08:06:35.167Z,33.09
2018-09-28T08:07:35.184Z,33.48
2018-09-28T08:08:35.119Z,32.92
2018-09-28T08:09:35.111Z,33.90
2018-09-28T08:10:35.102Z,33.07
2018-09-28T08:11:35.086Z,33.00
2018-09-28T08:12:35.090Z,33.81
2018-09-28T08:13:35.095Z,33.75
2018-09-28T08:14:35.053Z,33.78
2018-09-28T08:15:35.044Z,33.68
2018-09-28T08:16:35.036Z,32.90
2018-09-28T08:17:35.024Z,33.83
2018-09-28T08:18:35.031Z,34.36
2018-09-28T08:19:35.036Z,34.86
2018-09-28T08:20:34.988Z,32.70
2018-09-28T08:21:34.978Z,31.67
2018-09-28T08:22:34.964Z,30.94
2018-09-28T08:23:34.971Z,30.52
2018-09-28T08:24:34.961Z,29.88
2018-09-28T08:25:34.955Z,28.86
2018-09-28T08:26:34.922Z,28.34
2018-09-28T08:27:34.910Z,28.42
2018-09-28T08:28:34.914Z,28.61
2018-09-28T08:29:34.892Z,28.51
2018-09-28T08:30:34.945Z,27.39
2018-09-28T08:31:34.875Z,27.80
2018-09-28T08:32:34.869Z,27.89
2018-09-28T08:33:34.873Z,28.64
2018-09-28T08:34:34.833Z,28.94
2018-09-28T08:35:34.823Z,29.57
2018-09-28T08:36:34.836Z,29.96
2018-09-28T08:37:34.805Z,29.75
2018-09-28T08:38:34.795Z,28.64
2018-09-28T08:39:34.809Z,28.12
2018-09-28T08:40:34.769Z,28.39
2018-09-28T08:41:34.755Z,28.09
2018-09-28T08:42:34.750Z,27.86
2018-09-28T08:43:34.754Z,26.73
2018-09-28T08:44:34.737Z,25.95
2018-09-28T08:45:34.756Z,25.34
2018-09-28T08:46:34.709Z,25.33
2018-09-28T08:47:34.700Z,24.84
2018-09-28T08:48:34.682Z,25.54
2018-09-28T08:49:34.684Z,25.14
2018-09-28T08:50:34.666Z,25.01
2018-09-28T08:51:34.655Z,24.53
2018-09-28T08:52:34.641Z,25.65
2018-09-28T08:53:34.634Z,25.48
2018-09-28T08:54:34.631Z,27.09
2018-09-28T08:55:34.610Z,28.21
2018-09-28T08:56:34.600Z,28.20
2018-09-28T08:57:34.589Z,27.92
2018-09-28T08:58:34.575Z,28.62
2018-09-28T08:59:34.576Z,27.92
2018-09-28T09:00:34.564Z,27.84
2018-09-28T09:01:34.540Z,28.46
2018-09-28T09:02:34.529Z,28.75
2018-09-28T09:03:34.529Z,28.44
2018-09-28T09:04:34.529Z,28.44
2018-09-28T09:05:34.508Z,28.12
2018-09-28T09:06:34.490Z,28.94
2018-09-28T09:07:34.475Z,29.21
2018-09-28T09:08:34.472Z,28.08
2018-09-28T09:09:34.469Z,28.01
2018-09-28T09:10:34.445Z,28.00
2018-09-28T09:11:34.450Z,27.90
2018-09-28T09:12:34.427Z,28.62
2018-09-28T09:13:34.411Z,28.72
2018-09-28T09:14:34.413Z,28.92
2018-09-28T09:15:34.391Z,28.63
2018-09-28T09:16:34.380Z,29.85
2018-09-28T09:17:34.377Z,29.67
2018-09-28T09:18:34.361Z,30.77
2018-09-28T09:19:34.361Z,30.60
2018-09-28T09:20:34.344Z,30.91
2018-09-28T09:21:34.327Z,31.43
2018-09-28T09:22:34.319Z,31.34
2018-09-28T09:23:34.317Z,32.24
2018-09-28T09:24:34.309Z,32.35
2018-09-28T09:25:34.284Z,33.70
2018-09-28T09:26:34.294Z,32.92
2018-09-28T09:27:34.261Z,33.81
2018-09-28T09:28:34.794Z,33.68
2018-09-28T09:29:34.271Z,32.04
2018-09-28T09:30:34.232Z,31.94
2018-09-28T09:31:34.228Z,31.13
2018-09-28T09:32:34.208Z,31.02
2018-09-28T09:33:34.203Z,31.12
2018-09-28T09:34:34.193Z,31.02
2018-09-28T09:35:34.209Z,30.89
2018-09-28T09:36:34.232Z,29.58
2018-09-28T09:37:34.155Z,29.17
2018-09-28T09:38:34.150Z,27.81
2018-09-28T09:39:34.130Z,27.69
2018-09-28T09:40:34.132Z,26.76
2018-09-28T09:41:34.135Z,25.73
2018-09-28T09:42:34.139Z,25.62
2018-09-28T09:43:34.089Z,24.81
2018-09-28T09:44:34.117Z,24.01
2018-09-28T09:45:34.091Z,24.71
2018-09-28T09:46:34.089Z,24.02
2018-09-28T09:47:34.050Z,23.31
2018-09-28T09:48:34.069Z,23.21
2018-09-28T09:49:34.024Z,23.14
2018-09-28T09:50:34.340Z,24.71
2018-09-28T09:51:34.017Z,24.05
2018-09-28T09:52:33.990Z,24.44
2018-09-28T09:53:34.005Z,23.75
2018-09-28T09:54:33.971Z,24.63
2018-09-28T09:55:33.969Z,23.15
2018-09-28T09:56:33.963Z,23.37
2018-09-28T09:57:33.979Z,24.48
2018-09-28T09:58:33.925Z,24.32
2018-09-28T09:59:33.913Z,26.34
2018-09-28T10:00:33.903Z,27.03
2018-09-28T10:01:33.958Z,26.62
2018-09-28T10:02:33.915Z,26.12
2018-09-28T10:03:33.887Z,25.51
2018-09-28T10:04:33.864Z,26.32
2018-09-28T10:05:33.849Z,26.12
2018-09-28T10:06:33.854Z,25.21
2018-09-28T10:07:33.847Z,26.20
2018-09-28T10:08:33.825Z,27.00
2018-09-28T10:09:33.862Z,25.70
2018-09-28T10:10:33.798Z,25.28
2018-09-28T10:11:33.817Z,24.27
2018-09-28T10:12:33.883Z,23.96
2018-09-28T10:13:33.774Z,24.24
2018-09-28T10:14:33.760Z,24.44
2018-09-28T10:15:33.754Z,24.53
2018-09-28T10:16:33.753Z,24.54
2018-09-28T10:17:33.736Z,24.53
2018-09-28T10:18:33.715Z,24.22
2018-09-28T10:19:33.757Z,23.72
2018-09-28T10:20:33.700Z,23.31
2018-09-28T10:21:33.680Z,23.13
2018-09-28T10:22:33.706Z,23.42
2018-09-28T10:23:33.663Z,24.04
2018-09-28T10:24:33.657Z,23.74
2018-09-28T10:25:33.656Z,24.44
2018-09-28T10:26:33.647Z,24.34
2018-09-28T10:27:33.778Z,23.94
2018-09-28T10:28:33.710Z,23.13
2018-09-28T10:29:33.613Z,23.82
2018-09-28T10:30:33.606Z,22.93
2018-09-28T10:31:33.583Z,23.22
2018-09-28T10:32:33.582Z,22.75
2018-09-28T10:33:33.577Z,24.26
2018-09-28T10:34:34.360Z,24.46
2018-09-28T10:35:33.535Z,24.45
2018-09-28T10:36:33.523Z,23.85
2018-09-28T10:37:33.545Z,23.64
2018-09-28T10:38:33.501Z,23.62
2018-09-28T10:39:33.547Z,23.22
2018-09-28T10:40:33.587Z,23.11
2018-09-28T10:41:33.471Z,23.61
2018-09-28T10:42:33.505Z,22.93
2018-09-28T10:43:33.452Z,23.42
2018-09-28T10:44:33.441Z,24.13
2018-09-28T10:45:33.479Z,24.12
2018-09-28T10:46:33.477Z,22.94
2018-09-28T10:47:33.410Z,23.72
2018-09-28T10:48:33.420Z,23.14
2018-09-28T10:49:33.406Z,24.55
2018-09-28T10:50:33.373Z,24.39
2018-09-28T10:51:33.397Z,24.67
2018-09-28T10:52:33.400Z,24.23
2018-09-28T10:53:33.356Z,24.26
2018-09-28T10:54:33.335Z,24.98
2018-09-28T10:55:33.345Z,25.38
2018-09-28T10:56:33.328Z,24.33
2018-09-28T10:57:33.303Z,23.31
2018-09-28T10:58:33.361Z,23.00
2018-09-28T10:59:33.279Z,21.69
2018-09-28T11:00:33.405Z,21.30
2018-09-28T11:01:33.260Z,22.20
2018-09-28T11:02:33.258Z,22.20
2018-09-28T11:03:33.282Z,21.72
2018-09-28T11:04:33.267Z,22.08
2018-09-28T11:05:33.230Z,22.20
2018-09-28T11:06:33.363Z,21.92
2018-09-28T11:07:33.194Z,23.40
2018-09-28T11:08:33.286Z,22.10
2018-09-28T11:09:33.219Z,22.31
2018-09-28T11:10:33.245Z,23.35
2018-09-28T11:11:33.183Z,23.36
2018-09-28T11:12:33.153Z,23.07
2018-09-28T11:13:33.168Z,24.29
2018-09-28T11:14:33.131Z,24.01
2018-09-28T11:15:33.162Z,24.29
2018-09-28T11:16:33.104Z,23.27
2018-09-28T11:17:33.090Z,22.63
2018-09-28T11:18:33.093Z,21.81
2018-09-28T11:19:33.069Z,22.23
2018-09-28T11:20:33.098Z,22.45
2018-09-28T11:21:33.119Z,22.56
2018-09-28T11:22:33.035Z,22.77
2018-09-28T11:23:33.059Z,22.75
2018-09-28T11:24:33.022Z,23.57
2018-09-28T11:25:33.001Z,21.95
2018-09-28T11:26:32.998Z,20.73
2018-09-28T11:27:33.018Z,20.51
2018-09-28T11:28:33.002Z,20.59
2018-09-28T11:29:32.964Z,19.68
2018-09-28T11:30:32.959Z,19.67
2018-09-28T11:31:32.943Z,19.07
2018-09-28T11:32:32.932Z,18.66
2018-09-28T11:33:32.971Z,19.35
2018-09-28T11:34:32.917Z,18.59
2018-09-28T11:35:32.899Z,19.22
2018-09-28T11:36:32.896Z,20.32
2018-09-28T11:37:32.938Z,20.03
2018-09-28T11:38:32.877Z,20.34
2018-09-28T11:39:32.893Z,20.54
2018-09-28T11:40:32.850Z,21.36
2018-09-28T11:41:32.868Z,21.98
2018-09-28T11:42:32.830Z,22.37
2018-09-28T11:43:32.816Z,22.36
2018-09-28T11:44:32.816Z,21.44
2018-09-28T11:45:32.849Z,21.75
2018-09-28T11:46:32.790Z,21.36
2018-09-28T11:47:32.794Z,21.67
2018-09-28T11:48:32.771Z,21.95
2018-09-28T11:49:32.756Z,22.88
2018-09-28T11:50:32.765Z,22.80
2018-09-28T11:51:32.779Z,23.00
2018-09-28T11:52:32.736Z,23.19
2018-09-28T11:53:33.378Z,23.48
2018-09-28T11:54:32.704Z,22.89
2018-09-28T11:55:32.706Z,23.19
2018-09-28T11:56:32.683Z,23.50
2018-09-28T11:57:32.744Z,23.29
2018-09-28T11:58:32.672Z,22.30
2018-09-28T11:59:32.649Z,23.73
2018-09-28T12:00:32.683Z,23.96
2018-09-28T12:01:32.679Z,24.58
2018-09-28T12:02:32.635Z,24.78
2018-09-28T12:03:32.895Z,24.29
2018-09-28T12:04:32.596Z,24.30
2018-09-28T12:05:32.587Z,24.58
2018-09-28T12:06:32.717Z,23.54
2018-09-28T12:07:32.586Z,23.51
2018-09-28T12:08:32.590Z,24.44
2018-09-28T12:09:32.575Z,24.13
2018-09-28T12:10:32.534Z,24.56
2018-09-28T12:11:32.521Z,24.66
2018-09-28T12:12:32.567Z,24.67
2018-09-28T12:13:32.588Z,25.07
2018-09-28T12:14:32.511Z,24.18
2018-09-28T12:15:32.539Z,24.56
2018-09-28T12:16:32.475Z,24.15
2018-09-28T12:17:32.476Z,24.15
2018-09-28T12:18:32.516Z,24.16
